sensor_id;sensor_type;location;lat;lon;timestamp;pressure;altitude;pressure_sealevel;temperature;humidity
20015;BME280;61787;42.022;23.078;2022-10-22T00:00:45;97686.41;;;10.73;75.82
20015;BME280;61787;42.022;23.078;2022-10-22T00:01:47;97688.13;;;10.60;76.54
20015;BME280;61787;42.022;23.078;2022-10-22T00:02:49;97682.53;;;10.40;77.95
20015;BME280;61787;42.022;23.078;2022-10-22T00:03:51;97684.22;;;10.27;78.66
20015;BME280;61787;42.022;23.078;2022-10-22T00:04:53;97690.19;;;10.24;78.59
20015;BME280;61787;42.022;23.078;2022-10-22T00:05:57;97685.06;;;10.14;79.08
20015;BME280;61787;42.022;23.078;2022-10-22T00:06:59;97687.53;;;10.02;79.88
20015;BME280;61787;42.022;23.078;2022-10-22T00:08:00;97679.84;;;10.09;79.05
20015;BME280;61787;42.022;23.078;2022-10-22T00:09:02;97686.06;;;10.18;79.74
20015;BME280;61787;42.022;23.078;2022-10-22T00:10:05;97681.06;;;10.25;78.66
20015;BME280;61787;42.022;23.078;2022-10-22T00:11:12;97681.38;;;10.32;78.56
20015;BME280;61787;42.022;23.078;2022-10-22T00:12:15;97684.44;;;10.39;77.78
20015;BME280;61787;42.022;23.078;2022-10-22T00:13:17;97678.94;;;10.44;77.36
20015;BME280;61787;42.022;23.078;2022-10-22T00:14:19;97678.47;;;10.51;77.44
20015;BME280;61787;42.022;23.078;2022-10-22T00:15:21;97684.81;;;10.55;76.51
20015;BME280;61787;42.022;23.078;2022-10-22T00:16:22;97680.38;;;10.59;77.12
20015;BME280;61787;42.022;23.078;2022-10-22T00:17:24;97677.41;;;10.60;76.38
20015;BME280;61787;42.022;23.078;2022-10-22T00:18:25;97684.50;;;10.65;76.85
20015;BME280;61787;42.022;23.078;2022-10-22T00:19:27;97687.06;;;10.70;75.71
20015;BME280;61787;42.022;23.078;2022-10-22T00:20:29;97688.31;;;10.73;75.53
20015;BME280;61787;42.022;23.078;2022-10-22T00:21:30;97685.03;;;10.76;75.79
20015;BME280;61787;42.022;23.078;2022-10-22T00:22:32;97685.97;;;10.80;74.46
20015;BME280;61787;42.022;23.078;2022-10-22T00:23:34;97679.00;;;10.79;75.54
20015;BME280;61787;42.022;23.078;2022-10-22T00:24:37;97677.44;;;10.78;74.87
20015;BME280;61787;42.022;23.078;2022-10-22T00:25:39;97680.59;;;10.80;74.65
20015;BME280;61787;42.022;23.078;2022-10-22T00:26:40;97681.09;;;10.82;74.68
20015;BME280;61787;42.022;23.078;2022-10-22T00:27:42;97679.97;;;10.83;74.77
20015;BME280;61787;42.022;23.078;2022-10-22T00:28:44;97682.19;;;10.81;75.35
20015;BME280;61787;42.022;23.078;2022-10-22T00:29:45;97679.00;;;10.79;74.23
20015;BME280;61787;42.022;23.078;2022-10-22T00:30:47;97672.84;;;10.78;75.35
20015;BME280;61787;42.022;23.078;2022-10-22T00:31:48;97673.19;;;10.77;74.25
20015;BME280;61787;42.022;23.078;2022-10-22T00:32:50;97668.91;;;10.76;75.12
20015;BME280;61787;42.022;23.078;2022-10-22T00:33:52;97666.53;;;10.74;74.33
20015;BME280;61787;42.022;23.078;2022-10-22T00:34:54;97663.06;;;10.74;75.09
20015;BME280;61787;42.022;23.078;2022-10-22T00:35:55;97670.03;;;10.75;74.91
20015;BME280;61787;42.022;23.078;2022-10-22T00:36:57;97671.91;;;10.65;74.68
20015;BME280;61787;42.022;23.078;2022-10-22T00:37:59;97669.03;;;10.62;74.94
20015;BME280;61787;42.022;23.078;2022-10-22T00:39:00;97671.09;;;10.56;75.48
20015;BME280;61787;42.022;23.078;2022-10-22T00:40:03;97664.75;;;10.52;76.36
20015;BME280;61787;42.022;23.078;2022-10-22T00:41:05;97665.06;;;10.51;76.08
20015;BME280;61787;42.022;23.078;2022-10-22T00:42:12;97661.59;;;10.50;77.23
20015;BME280;61787;42.022;23.078;2022-10-22T00:43:18;97663.19;;;10.51;76.10
20015;BME280;61787;42.022;23.078;2022-10-22T00:45:03;97661.47;;;10.55;76.21
20015;BME280;61787;42.022;23.078;2022-10-22T00:46:05;97660.81;;;10.58;76.05
20015;BME280;61787;42.022;23.078;2022-10-22T00:47:07;97655.16;;;10.60;75.34
20015;BME280;61787;42.022;23.078;2022-10-22T00:48:18;97655.00;;;10.56;75.61
20015;BME280;61787;42.022;23.078;2022-10-22T00:49:20;97655.59;;;10.53;76.14
20015;BME280;61787;42.022;23.078;2022-10-22T00:51:38;97652.63;;;10.55;76.39
20015;BME280;61787;42.022;23.078;2022-10-22T00:52:40;97646.47;;;10.54;75.82
20015;BME280;61787;42.022;23.078;2022-10-22T00:53:51;97645.03;;;10.57;75.70
20015;BME280;61787;42.022;23.078;2022-10-22T00:54:54;97654.38;;;10.59;75.81
20015;BME280;61787;42.022;23.078;2022-10-22T00:55:55;97646.97;;;10.65;75.45
20015;BME280;61787;42.022;23.078;2022-10-22T00:56:57;97647.13;;;10.68;75.48
20015;BME280;61787;42.022;23.078;2022-10-22T00:57:59;97645.72;;;10.71;75.22
20015;BME280;61787;42.022;23.078;2022-10-22T00:59:02;97644.28;;;10.74;74.92
20015;BME280;61787;42.022;23.078;2022-10-22T01:00:05;97646.81;;;10.79;74.14
20015;BME280;61787;42.022;23.078;2022-10-22T01:01:13;97642.41;;;10.83;75.10
20015;BME280;61787;42.022;23.078;2022-10-22T01:02:16;97650.47;;;10.91;73.84
20015;BME280;61787;42.022;23.078;2022-10-22T01:03:18;97646.69;;;10.92;74.31
20015;BME280;61787;42.022;23.078;2022-10-22T01:04:20;97652.19;;;10.79;74.04
20015;BME280;61787;42.022;23.078;2022-10-22T01:05:21;97645.38;;;10.64;75.06
20015;BME280;61787;42.022;23.078;2022-10-22T01:06:29;97647.03;;;10.34;75.88
20015;BME280;61787;42.022;23.078;2022-10-22T01:07:42;97640.81;;;10.16;76.63
20015;BME280;61787;42.022;23.078;2022-10-22T01:08:55;97640.72;;;9.99;77.06
20015;BME280;61787;42.022;23.078;2022-10-22T01:11:40;97639.97;;;9.54;80.41
20015;BME280;61787;42.022;23.078;2022-10-22T01:12:49;97650.69;;;9.54;80.66
20015;BME280;61787;42.022;23.078;2022-10-22T01:13:59;97638.66;;;9.43;80.54
20015;BME280;61787;42.022;23.078;2022-10-22T01:15:14;97647.41;;;9.35;81.64
20015;BME280;61787;42.022;23.078;2022-10-22T01:16:29;97647.84;;;9.28;82.18
20015;BME280;61787;42.022;23.078;2022-10-22T01:30:00;97649.66;;;8.01;87.44
20015;BME280;61787;42.022;23.078;2022-10-22T01:31:02;97644.81;;;8.03;88.04
20015;BME280;61787;42.022;23.078;2022-10-22T01:32:10;97650.72;;;8.00;87.93
20015;BME280;61787;42.022;23.078;2022-10-22T01:33:16;97656.69;;;7.97;88.35
20015;BME280;61787;42.022;23.078;2022-10-22T01:34:19;97658.16;;;7.90;88.91
20015;BME280;61787;42.022;23.078;2022-10-22T01:35:30;97652.13;;;7.84;88.80
20015;BME280;61787;42.022;23.078;2022-10-22T01:36:34;97648.94;;;7.82;88.60
20015;BME280;61787;42.022;23.078;2022-10-22T01:37:45;97648.94;;;7.82;89.03
20015;BME280;61787;42.022;23.078;2022-10-22T01:38:49;97655.88;;;7.83;89.84
20015;BME280;61787;42.022;23.078;2022-10-22T01:39:51;97651.00;;;7.85;89.88
20015;BME280;61787;42.022;23.078;2022-10-22T01:40:55;97650.44;;;7.88;89.69
20015;BME280;61787;42.022;23.078;2022-10-22T01:41:57;97654.69;;;7.89;89.50
20015;BME280;61787;42.022;23.078;2022-10-22T01:43:01;97649.28;;;7.94;89.65
20015;BME280;61787;42.022;23.078;2022-10-22T01:44:03;97650.53;;;7.97;89.42
20015;BME280;61787;42.022;23.078;2022-10-22T01:45:12;97651.84;;;7.99;89.13
20015;BME280;61787;42.022;23.078;2022-10-22T01:46:15;97652.31;;;8.01;89.01
20015;BME280;61787;42.022;23.078;2022-10-22T01:47:56;97656.50;;;8.07;89.21
20015;BME280;61787;42.022;23.078;2022-10-22T01:57:25;97645.72;;;8.26;90.02
20015;BME280;61787;42.022;23.078;2022-10-22T02:00:20;97632.97;;;8.50;88.73
20015;BME280;61787;42.022;23.078;2022-10-22T02:01:28;97632.78;;;8.61;88.31
20015;BME280;61787;42.022;23.078;2022-10-22T02:03:59;97637.97;;;8.79;87.00
20015;BME280;61787;42.022;23.078;2022-10-22T02:05:11;97632.56;;;8.71;87.47
20015;BME280;61787;42.022;23.078;2022-10-22T02:06:18;97631.47;;;8.72;87.29
20015;BME280;61787;42.022;23.078;2022-10-22T02:07:25;97632.13;;;8.77;86.64
20015;BME280;61787;42.022;23.078;2022-10-22T02:08:31;97637.69;;;8.81;85.95
20015;BME280;61787;42.022;23.078;2022-10-22T02:09:34;97629.56;;;8.72;86.24
20015;BME280;61787;42.022;23.078;2022-10-22T02:10:38;97635.34;;;8.52;86.51
20015;BME280;61787;42.022;23.078;2022-10-22T02:11:41;97629.81;;;8.35;87.62
20015;BME280;61787;42.022;23.078;2022-10-22T02:12:47;97632.97;;;8.23;87.88
20015;BME280;61787;42.022;23.078;2022-10-22T02:13:54;97633.44;;;8.11;88.81
20015;BME280;61787;42.022;23.078;2022-10-22T02:14:57;97634.75;;;8.14;88.58
20015;BME280;61787;42.022;23.078;2022-10-22T02:16:02;97632.75;;;8.20;87.98
20015;BME280;61787;42.022;23.078;2022-10-22T02:17:08;97626.66;;;8.33;87.12
20015;BME280;61787;42.022;23.078;2022-10-22T02:18:13;97627.06;;;8.40;87.17
20015;BME280;61787;42.022;23.078;2022-10-22T02:19:24;97623.09;;;8.51;84.89
20015;BME280;61787;42.022;23.078;2022-10-22T02:20:29;97628.69;;;8.63;84.02
20015;BME280;61787;42.022;23.078;2022-10-22T02:21:34;97628.78;;;8.72;83.40
20015;BME280;61787;42.022;23.078;2022-10-22T02:22:36;97630.56;;;8.76;83.12
20015;BME280;61787;42.022;23.078;2022-10-22T02:23:38;97629.94;;;8.79;83.07
20015;BME280;61787;42.022;23.078;2022-10-22T02:24:40;97629.84;;;8.84;83.53
20015;BME280;61787;42.022;23.078;2022-10-22T02:25:47;97635.69;;;8.86;83.65
20015;BME280;61787;42.022;23.078;2022-10-22T02:27:09;97632.41;;;8.89;83.87
20015;BME280;61787;42.022;23.078;2022-10-22T02:29:32;97633.25;;;8.98;82.40
20015;BME280;61787;42.022;23.078;2022-10-22T02:30:37;97628.13;;;9.02;81.83
20015;BME280;61787;42.022;23.078;2022-10-22T02:31:42;97638.19;;;9.05;82.19
20015;BME280;61787;42.022;23.078;2022-10-22T02:33:01;97629.28;;;9.10;81.29
20015;BME280;61787;42.022;23.078;2022-10-22T02:34:09;97632.44;;;9.12;80.87
20015;BME280;61787;42.022;23.078;2022-10-22T02:35:14;97636.81;;;9.08;80.29
20015;BME280;61787;42.022;23.078;2022-10-22T02:36:18;97634.25;;;9.03;79.92
20015;BME280;61787;42.022;23.078;2022-10-22T02:37:21;97632.06;;;9.05;81.25
20015;BME280;61787;42.022;23.078;2022-10-22T02:38:24;97634.63;;;9.10;81.03
20015;BME280;61787;42.022;23.078;2022-10-22T02:39:27;97622.78;;;9.02;80.98
20015;BME280;61787;42.022;23.078;2022-10-22T02:40:30;97637.81;;;8.98;81.43
20015;BME280;61787;42.022;23.078;2022-10-22T02:41:32;97636.16;;;8.88;82.20
20015;BME280;61787;42.022;23.078;2022-10-22T02:42:35;97637.69;;;8.81;83.09
20015;BME280;61787;42.022;23.078;2022-10-22T02:43:44;97640.66;;;8.79;83.01
20015;BME280;61787;42.022;23.078;2022-10-22T02:44:46;97636.88;;;8.80;83.17
20015;BME280;61787;42.022;23.078;2022-10-22T02:45:47;97640.47;;;8.62;82.70
20015;BME280;61787;42.022;23.078;2022-10-22T02:46:49;97635.72;;;8.59;83.14
20015;BME280;61787;42.022;23.078;2022-10-22T02:47:51;97636.72;;;8.63;83.37
20015;BME280;61787;42.022;23.078;2022-10-22T02:48:53;97638.59;;;8.63;84.17
20015;BME280;61787;42.022;23.078;2022-10-22T02:49:54;97645.81;;;8.62;84.09
20015;BME280;61787;42.022;23.078;2022-10-22T02:50:56;97643.13;;;8.62;84.37
20015;BME280;61787;42.022;23.078;2022-10-22T02:51:57;97639.72;;;8.62;84.42
20015;BME280;61787;42.022;23.078;2022-10-22T02:53:00;97643.13;;;8.62;83.98
20015;BME280;61787;42.022;23.078;2022-10-22T02:54:01;97640.69;;;8.66;83.80
20015;BME280;61787;42.022;23.078;2022-10-22T02:55:05;97642.94;;;8.72;83.14
20015;BME280;61787;42.022;23.078;2022-10-22T02:56:07;97651.84;;;8.81;83.19
20015;BME280;61787;42.022;23.078;2022-10-22T02:57:09;97655.50;;;8.85;82.90
20015;BME280;61787;42.022;23.078;2022-10-22T02:58:11;97653.81;;;8.89;82.48
20015;BME280;61787;42.022;23.078;2022-10-22T02:59:14;97651.13;;;8.89;82.27
20015;BME280;61787;42.022;23.078;2022-10-22T03:00:15;97654.19;;;8.83;81.42
20015;BME280;61787;42.022;23.078;2022-10-22T03:01:17;97654.63;;;8.76;81.08
20015;BME280;61787;42.022;23.078;2022-10-22T03:02:19;97658.09;;;8.77;80.97
20015;BME280;61787;42.022;23.078;2022-10-22T03:03:20;97658.28;;;8.80;81.50
20015;BME280;61787;42.022;23.078;2022-10-22T03:04:22;97653.41;;;8.82;81.94
20015;BME280;61787;42.022;23.078;2022-10-22T03:05:23;97658.97;;;8.86;81.88
20015;BME280;61787;42.022;23.078;2022-10-22T03:06:25;97658.66;;;8.87;81.93
20015;BME280;61787;42.022;23.078;2022-10-22T03:07:26;97659.44;;;8.88;81.95
20015;BME280;61787;42.022;23.078;2022-10-22T03:08:28;97653.63;;;8.72;83.35
20015;BME280;61787;42.022;23.078;2022-10-22T03:09:30;97655.53;;;8.58;83.89
20015;BME280;61787;42.022;23.078;2022-10-22T03:10:31;97654.16;;;8.47;85.17
20015;BME280;61787;42.022;23.078;2022-10-22T03:11:33;97649.69;;;8.29;86.37
20015;BME280;61787;42.022;23.078;2022-10-22T03:12:34;97654.81;;;7.98;88.08
20015;BME280;61787;42.022;23.078;2022-10-22T03:13:36;97649.38;;;7.89;88.82
20015;BME280;61787;42.022;23.078;2022-10-22T03:14:38;97652.41;;;7.83;89.26
20015;BME280;61787;42.022;23.078;2022-10-22T03:15:39;97654.28;;;7.82;89.60
20015;BME280;61787;42.022;23.078;2022-10-22T03:16:41;97660.22;;;7.79;89.88
20015;BME280;61787;42.022;23.078;2022-10-22T03:17:43;97664.16;;;7.82;90.19
20015;BME280;61787;42.022;23.078;2022-10-22T03:18:44;97663.78;;;7.88;89.64
20015;BME280;61787;42.022;23.078;2022-10-22T03:19:46;97668.34;;;8.01;88.90
20015;BME280;61787;42.022;23.078;2022-10-22T03:20:48;97677.78;;;8.12;88.23
20015;BME280;61787;42.022;23.078;2022-10-22T03:21:53;97680.25;;;8.23;87.04
20015;BME280;61787;42.022;23.078;2022-10-22T03:22:56;97683.28;;;8.35;86.60
20015;BME280;61787;42.022;23.078;2022-10-22T03:24:00;97683.16;;;8.40;85.86
20015;BME280;61787;42.022;23.078;2022-10-22T03:25:06;97688.41;;;8.45;86.43
20015;BME280;61787;42.022;23.078;2022-10-22T03:26:11;97686.22;;;8.47;84.92
20015;BME280;61787;42.022;23.078;2022-10-22T03:27:16;97686.44;;;8.50;84.46
20015;BME280;61787;42.022;23.078;2022-10-22T03:28:19;97689.19;;;8.59;83.38
20015;BME280;61787;42.022;23.078;2022-10-22T03:29:22;97678.91;;;8.66;83.47
20015;BME280;61787;42.022;23.078;2022-10-22T03:30:25;97685.22;;;8.70;82.41
20015;BME280;61787;42.022;23.078;2022-10-22T03:31:27;97681.47;;;8.71;82.42
20015;BME280;61787;42.022;23.078;2022-10-22T03:32:29;97679.28;;;8.73;82.52
20015;BME280;61787;42.022;23.078;2022-10-22T03:33:32;97684.84;;;8.77;82.04
20015;BME280;61787;42.022;23.078;2022-10-22T03:34:35;97679.69;;;8.80;81.83
20015;BME280;61787;42.022;23.078;2022-10-22T03:35:41;97683.84;;;8.86;81.17
20015;BME280;61787;42.022;23.078;2022-10-22T03:36:44;97682.63;;;8.92;80.99
20015;BME280;61787;42.022;23.078;2022-10-22T03:37:46;97680.94;;;8.83;79.46
20015;BME280;61787;42.022;23.078;2022-10-22T03:38:48;97678.69;;;8.76;79.84
20015;BME280;61787;42.022;23.078;2022-10-22T03:39:50;97677.72;;;8.59;79.34
20015;BME280;61787;42.022;23.078;2022-10-22T03:40:53;97679.50;;;8.36;80.39
20015;BME280;61787;42.022;23.078;2022-10-22T03:41:56;97678.66;;;8.22;80.98
20015;BME280;61787;42.022;23.078;2022-10-22T03:42:58;97680.63;;;8.02;81.78
20015;BME280;61787;42.022;23.078;2022-10-22T03:44:00;97681.97;;;7.86;82.53
20015;BME280;61787;42.022;23.078;2022-10-22T03:45:04;97682.47;;;7.88;83.38
20015;BME280;61787;42.022;23.078;2022-10-22T03:46:06;97688.72;;;7.84;82.92
20015;BME280;61787;42.022;23.078;2022-10-22T03:47:08;97684.16;;;7.84;83.07
20015;BME280;61787;42.022;23.078;2022-10-22T03:48:09;97682.66;;;7.78;82.84
20015;BME280;61787;42.022;23.078;2022-10-22T03:49:11;97680.34;;;7.71;84.10
20015;BME280;61787;42.022;23.078;2022-10-22T03:50:13;97676.41;;;7.69;84.20
20015;BME280;61787;42.022;23.078;2022-10-22T03:51:14;97681.94;;;7.72;83.82
20015;BME280;61787;42.022;23.078;2022-10-22T03:52:16;97682.66;;;7.78;83.64
20015;BME280;61787;42.022;23.078;2022-10-22T03:53:18;97681.06;;;7.77;83.21
20015;BME280;61787;42.022;23.078;2022-10-22T03:54:20;97681.59;;;7.79;82.92
20015;BME280;61787;42.022;23.078;2022-10-22T03:55:21;97686.41;;;7.77;83.07
20015;BME280;61787;42.022;23.078;2022-10-22T03:56:23;97691.41;;;7.65;83.75
20015;BME280;61787;42.022;23.078;2022-10-22T03:57:24;97697.56;;;7.47;85.59
20015;BME280;61787;42.022;23.078;2022-10-22T03:58:26;97705.16;;;7.40;86.47
20015;BME280;61787;42.022;23.078;2022-10-22T03:59:28;97706.97;;;7.25;87.29
20015;BME280;61787;42.022;23.078;2022-10-22T04:00:29;97709.84;;;7.10;87.61
20015;BME280;61787;42.022;23.078;2022-10-22T04:01:31;97700.06;;;7.06;87.80
20015;BME280;61787;42.022;23.078;2022-10-22T04:02:33;97701.06;;;7.10;87.68
20015;BME280;61787;42.022;23.078;2022-10-22T04:03:34;97699.63;;;7.17;87.45
20015;BME280;61787;42.022;23.078;2022-10-22T04:04:36;97693.69;;;7.20;87.90
20015;BME280;61787;42.022;23.078;2022-10-22T04:05:38;97694.22;;;7.22;87.54
20015;BME280;61787;42.022;23.078;2022-10-22T04:06:40;97693.03;;;7.28;88.19
20015;BME280;61787;42.022;23.078;2022-10-22T04:07:41;97691.88;;;7.35;87.71
20015;BME280;61787;42.022;23.078;2022-10-22T04:08:44;97696.06;;;7.41;87.27
20015;BME280;61787;42.022;23.078;2022-10-22T04:09:45;97694.31;;;7.50;86.74
20015;BME280;61787;42.022;23.078;2022-10-22T04:10:50;97688.97;;;7.50;86.78
20015;BME280;61787;42.022;23.078;2022-10-22T04:11:52;97688.97;;;7.50;87.16
20015;BME280;61787;42.022;23.078;2022-10-22T04:12:54;97686.75;;;7.57;86.34
20015;BME280;61787;42.022;23.078;2022-10-22T04:13:55;97699.13;;;7.66;86.60
20015;BME280;61787;42.022;23.078;2022-10-22T04:14:57;97702.50;;;7.72;86.48
20015;BME280;61787;42.022;23.078;2022-10-22T04:16:14;97698.16;;;7.76;85.93
20015;BME280;61787;42.022;23.078;2022-10-22T04:17:16;97695.00;;;7.74;86.24
20015;BME280;61787;42.022;23.078;2022-10-22T04:18:19;97694.94;;;7.60;86.96
20015;BME280;61787;42.022;23.078;2022-10-22T04:19:20;97698.56;;;7.51;87.94
20015;BME280;61787;42.022;23.078;2022-10-22T04:20:22;97695.91;;;7.51;87.90
20015;BME280;61787;42.022;23.078;2022-10-22T04:21:24;97693.25;;;7.51;88.22
20015;BME280;61787;42.022;23.078;2022-10-22T04:22:26;97692.53;;;7.45;88.46
20015;BME280;61787;42.022;23.078;2022-10-22T04:23:27;97689.13;;;7.40;88.76
20015;BME280;61787;42.022;23.078;2022-10-22T04:24:30;97687.63;;;7.34;88.70
20015;BME280;61787;42.022;23.078;2022-10-22T04:25:32;97690.59;;;7.32;89.50
20015;BME280;61787;42.022;23.078;2022-10-22T04:26:33;97685.03;;;7.28;89.50
20015;BME280;61787;42.022;23.078;2022-10-22T04:27:35;97684.53;;;7.26;90.73
20015;BME280;61787;42.022;23.078;2022-10-22T04:28:37;97683.09;;;7.15;90.86
20015;BME280;61787;42.022;23.078;2022-10-22T04:29:38;97680.50;;;7.10;91.82
20015;BME280;61787;42.022;23.078;2022-10-22T04:30:40;97681.91;;;7.08;92.10
20015;BME280;61787;42.022;23.078;2022-10-22T04:31:42;97681.19;;;7.02;92.51
20015;BME280;61787;42.022;23.078;2022-10-22T04:32:43;97679.66;;;6.96;93.30
20015;BME280;61787;42.022;23.078;2022-10-22T04:33:45;97682.38;;;6.91;93.14
20015;BME280;61787;42.022;23.078;2022-10-22T04:34:47;97681.59;;;6.91;93.83
20015;BME280;61787;42.022;23.078;2022-10-22T04:35:48;97671.13;;;6.94;93.39
20015;BME280;61787;42.022;23.078;2022-10-22T04:36:50;97675.91;;;6.97;93.93
20015;BME280;61787;42.022;23.078;2022-10-22T04:37:53;97674.31;;;6.96;93.07
20015;BME280;61787;42.022;23.078;2022-10-22T04:38:57;97675.91;;;6.97;93.28
20015;BME280;61787;42.022;23.078;2022-10-22T04:39:59;97668.84;;;7.06;93.65
20015;BME280;61787;42.022;23.078;2022-10-22T04:41:21;97667.63;;;7.17;92.89
20015;BME280;61787;42.022;23.078;2022-10-22T04:42:23;97670.22;;;7.22;92.80
20015;BME280;61787;42.022;23.078;2022-10-22T04:43:25;97666.94;;;7.25;92.29
20015;BME280;61787;42.022;23.078;2022-10-22T04:44:27;97665.09;;;7.26;91.94
20015;BME280;61787;42.022;23.078;2022-10-22T04:45:29;97658.88;;;7.31;91.68
20015;BME280;61787;42.022;23.078;2022-10-22T04:46:32;97664.63;;;7.38;91.62
20015;BME280;61787;42.022;23.078;2022-10-22T04:47:34;97662.00;;;7.51;90.80
20015;BME280;61787;42.022;23.078;2022-10-22T04:48:36;97663.25;;;7.59;89.91
20015;BME280;61787;42.022;23.078;2022-10-22T04:49:39;97659.38;;;7.65;89.54
20015;BME280;61787;42.022;23.078;2022-10-22T04:50:40;97658.72;;;7.73;88.55
20015;BME280;61787;42.022;23.078;2022-10-22T04:51:42;97649.53;;;7.79;88.18
20015;BME280;61787;42.022;23.078;2022-10-22T04:52:43;97655.06;;;7.83;87.41
20015;BME280;61787;42.022;23.078;2022-10-22T04:53:45;97649.94;;;7.86;87.79
20015;BME280;61787;42.022;23.078;2022-10-22T04:54:47;97645.00;;;7.93;87.03
20015;BME280;61787;42.022;23.078;2022-10-22T04:55:48;97647.00;;;8.01;86.89
20015;BME280;61787;42.022;23.078;2022-10-22T04:56:50;97647.97;;;8.05;85.98
20015;BME280;61787;42.022;23.078;2022-10-22T04:57:52;97651.06;;;8.12;85.71
20015;BME280;61787;42.022;23.078;2022-10-22T04:58:56;97648.78;;;8.20;84.14
20015;BME280;61787;42.022;23.078;2022-10-22T05:00:00;97651.38;;;8.25;83.91
20015;BME280;61787;42.022;23.078;2022-10-22T05:01:16;97648.38;;;8.26;83.04
20015;BME280;61787;42.022;23.078;2022-10-22T05:02:18;97649.19;;;8.27;82.65
20015;BME280;61787;42.022;23.078;2022-10-22T05:03:20;97653.16;;;8.29;83.04
20015;BME280;61787;42.022;23.078;2022-10-22T05:04:21;97649.63;;;8.34;82.38
20015;BME280;61787;42.022;23.078;2022-10-22T05:05:23;97652.69;;;8.41;82.46
20015;BME280;61787;42.022;23.078;2022-10-22T05:06:25;97648.44;;;8.40;82.80
20015;BME280;61787;42.022;23.078;2022-10-22T05:07:28;97655.16;;;8.37;83.17
20015;BME280;61787;42.022;23.078;2022-10-22T05:08:30;97647.13;;;8.37;82.95
20015;BME280;61787;42.022;23.078;2022-10-22T05:09:32;97646.84;;;8.39;83.50
20015;BME280;61787;42.022;23.078;2022-10-22T05:10:34;97646.22;;;8.42;82.86
20015;BME280;61787;42.022;23.078;2022-10-22T05:11:37;97640.59;;;8.43;82.48
20015;BME280;61787;42.022;23.078;2022-10-22T05:12:41;97644.84;;;8.44;82.69
20015;BME280;61787;42.022;23.078;2022-10-22T05:13:43;97642.97;;;8.45;82.65
20015;BME280;61787;42.022;23.078;2022-10-22T05:14:44;97643.47;;;8.47;83.01
20015;BME280;61787;42.022;23.078;2022-10-22T05:15:46;97647.25;;;8.46;83.09
20015;BME280;61787;42.022;23.078;2022-10-22T05:16:50;97642.88;;;8.50;82.84
20015;BME280;61787;42.022;23.078;2022-10-22T05:17:52;97645.66;;;8.45;82.46
20015;BME280;61787;42.022;23.078;2022-10-22T05:19:00;97643.16;;;8.48;82.88
20015;BME280;61787;42.022;23.078;2022-10-22T05:20:05;97642.28;;;8.53;83.16
20015;BME280;61787;42.022;23.078;2022-10-22T05:21:09;97634.25;;;8.53;82.68
20015;BME280;61787;42.022;23.078;2022-10-22T05:22:11;97646.53;;;8.54;83.18
20015;BME280;61787;42.022;23.078;2022-10-22T05:23:13;97640.09;;;8.55;83.22
20015;BME280;61787;42.022;23.078;2022-10-22T05:24:15;97643.25;;;8.57;82.90
20015;BME280;61787;42.022;23.078;2022-10-22T05:25:17;97643.75;;;8.59;82.88
20015;BME280;61787;42.022;23.078;2022-10-22T05:26:21;97638.91;;;8.61;83.21
20015;BME280;61787;42.022;23.078;2022-10-22T05:27:24;97640.28;;;8.59;83.32
20015;BME280;61787;42.022;23.078;2022-10-22T05:28:25;97635.75;;;8.32;83.39
20015;BME280;61787;42.022;23.078;2022-10-22T05:29:27;97647.63;;;8.26;84.56
20015;BME280;61787;42.022;23.078;2022-10-22T05:30:29;97642.22;;;8.31;84.42
20015;BME280;61787;42.022;23.078;2022-10-22T05:31:30;97639.63;;;8.39;83.82
20015;BME280;61787;42.022;23.078;2022-10-22T05:32:34;97644.25;;;8.47;83.82
20015;BME280;61787;42.022;23.078;2022-10-22T05:33:35;97641.28;;;8.49;83.28
20015;BME280;61787;42.022;23.078;2022-10-22T05:34:37;97659.91;;;8.54;83.90
20015;BME280;61787;42.022;23.078;2022-10-22T05:35:40;97651.78;;;8.59;83.36
20015;BME280;61787;42.022;23.078;2022-10-22T05:36:47;97644.84;;;8.58;83.38
20015;BME280;61787;42.022;23.078;2022-10-22T05:37:48;97646.63;;;8.63;83.67
20015;BME280;61787;42.022;23.078;2022-10-22T05:38:50;97647.00;;;8.70;83.33
20015;BME280;61787;42.022;23.078;2022-10-22T05:39:52;97648.97;;;8.78;82.39
20015;BME280;61787;42.022;23.078;2022-10-22T05:41:21;97648.56;;;8.84;82.07
20015;BME280;61787;42.022;23.078;2022-10-22T05:42:22;97644.19;;;8.88;82.54
20015;BME280;61787;42.022;23.078;2022-10-22T05:43:24;97653.41;;;8.96;82.34
20015;BME280;61787;42.022;23.078;2022-10-22T05:44:25;97647.75;;;8.97;81.13
20015;BME280;61787;42.022;23.078;2022-10-22T05:45:27;97651.41;;;9.02;80.95
20015;BME280;61787;42.022;23.078;2022-10-22T05:46:31;97640.69;;;9.02;81.51
20015;BME280;61787;42.022;23.078;2022-10-22T05:47:33;97645.44;;;9.05;80.53
20015;BME280;61787;42.022;23.078;2022-10-22T05:48:35;97650.84;;;9.13;80.69
20015;BME280;61787;42.022;23.078;2022-10-22T05:49:36;97653.97;;;9.07;80.46
20015;BME280;61787;42.022;23.078;2022-10-22T05:50:38;97661.47;;;9.05;80.71
20015;BME280;61787;42.022;23.078;2022-10-22T05:51:40;97658.00;;;9.04;79.95
20015;BME280;61787;42.022;23.078;2022-10-22T05:52:43;97659.00;;;9.08;80.47
20015;BME280;61787;42.022;23.078;2022-10-22T05:53:45;97666.13;;;9.13;80.58
20015;BME280;61787;42.022;23.078;2022-10-22T05:54:51;97664.44;;;9.17;80.23
20015;BME280;61787;42.022;23.078;2022-10-22T05:55:52;97665.91;;;9.23;79.96
20015;BME280;61787;42.022;23.078;2022-10-22T05:56:54;97651.41;;;9.24;80.52
20015;BME280;61787;42.022;23.078;2022-10-22T05:57:56;97664.66;;;9.29;80.94
20015;BME280;61787;42.022;23.078;2022-10-22T05:58:57;97659.06;;;9.39;80.23
20015;BME280;61787;42.022;23.078;2022-10-22T05:59:59;97659.97;;;9.48;79.74
20015;BME280;61787;42.022;23.078;2022-10-22T06:01:03;97666.88;;;9.49;79.06
20015;BME280;61787;42.022;23.078;2022-10-22T06:02:05;97663.44;;;9.49;79.70
20015;BME280;61787;42.022;23.078;2022-10-22T06:03:07;97671.13;;;9.50;80.18
20015;BME280;61787;42.022;23.078;2022-10-22T06:04:10;97668.94;;;9.52;80.20